createdAt,value
2017-08-21T00:00:27.638Z,15.00
2017-08-21T00:02:54.391Z,15.10
2017-08-21T00:05:20.534Z,15.10
2017-08-21T00:07:46.685Z,15.10
2017-08-21T00:10:12.693Z,15.10
2017-08-21T00:12:38.713Z,15.10
2017-08-21T00:15:04.931Z,15.00
2017-08-21T00:17:30.953Z,15.10
2017-08-21T00:19:57.075Z,15.10
2017-08-21T00:22:23.142Z,15.10
2017-08-21T00:24:49.211Z,15.10
2017-08-21T00:27:15.222Z,15.00
2017-08-21T00:29:41.270Z,15.00
2017-08-21T00:32:07.306Z,15.10
2017-08-21T00:34:33.322Z,15.10
2017-08-21T00:36:59.563Z,15.00
2017-08-21T00:39:25.586Z,15.00
2017-08-21T00:41:51.622Z,14.90
2017-08-21T00:44:17.938Z,15.00
2017-08-21T00:46:43.961Z,14.90
2017-08-21T00:49:10.007Z,15.00
2017-08-21T00:51:36.355Z,15.00
2017-08-21T00:54:03.121Z,14.90
2017-08-21T00:56:29.208Z,14.90
2017-08-21T00:58:56.031Z,14.90
2017-08-21T01:01:22.062Z,14.90
2017-08-21T01:03:48.846Z,14.90
2017-08-21T01:06:14.878Z,14.90
2017-08-21T01:08:40.915Z,14.90
2017-08-21T01:11:06.926Z,14.90
2017-08-21T01:13:32.970Z,14.70
2017-08-21T01:15:59.006Z,14.70
2017-08-21T01:18:25.842Z,14.80
2017-08-21T01:20:52.332Z,14.80
2017-08-21T01:23:18.350Z,14.70
2017-08-21T01:25:44.390Z,14.70
2017-08-21T01:28:10.435Z,14.70
2017-08-21T01:30:37.252Z,14.70
2017-08-21T01:33:03.282Z,14.70
2017-08-21T01:35:29.710Z,14.60
2017-08-21T01:37:55.734Z,14.70
2017-08-21T01:40:21.750Z,14.60
2017-08-21T01:42:47.806Z,14.70
2017-08-21T01:45:14.869Z,14.50
2017-08-21T01:47:40.882Z,14.50
2017-08-21T01:50:07.655Z,14.50
2017-08-21T01:52:33.665Z,14.50
2017-08-21T01:54:59.688Z,14.60
2017-08-21T01:57:25.918Z,14.60
2017-08-21T01:59:51.941Z,14.70
2017-08-21T02:02:17.978Z,14.70
2017-08-21T02:04:44.013Z,14.50
2017-08-21T02:07:10.068Z,14.60
2017-08-21T02:09:36.122Z,14.60
2017-08-21T02:12:02.189Z,14.60
2017-08-21T02:14:28.210Z,14.60
2017-08-21T02:16:54.242Z,14.60
2017-08-21T02:19:21.231Z,14.60
2017-08-21T02:21:47.255Z,14.60
2017-08-21T02:24:13.273Z,14.60
2017-08-21T02:26:39.325Z,14.70
2017-08-21T02:29:05.350Z,14.70
2017-08-21T02:31:31.575Z,14.70
2017-08-21T02:33:57.628Z,14.70
2017-08-21T02:36:24.422Z,14.60
2017-08-21T02:38:50.483Z,14.50
2017-08-21T02:41:16.530Z,14.50
2017-08-21T02:43:42.571Z,14.50
2017-08-21T02:46:08.595Z,14.60
2017-08-21T02:48:34.652Z,14.60
2017-08-21T02:51:00.666Z,14.60
2017-08-21T02:53:26.682Z,14.60
2017-08-21T02:55:52.735Z,14.60
2017-08-21T02:58:18.770Z,14.60
2017-08-21T03:00:45.752Z,14.50
2017-08-21T03:03:11.786Z,14.50
2017-08-21T03:05:37.815Z,14.50
2017-08-21T03:08:03.883Z,14.60
2017-08-21T03:10:29.934Z,14.60
2017-08-21T03:12:55.999Z,14.60
2017-08-21T03:15:22.050Z,14.60
2017-08-21T03:17:48.850Z,14.70
2017-08-21T03:20:14.870Z,14.70
2017-08-21T03:22:41.777Z,14.60
2017-08-21T03:25:07.800Z,14.50
2017-08-21T03:27:33.845Z,14.50
2017-08-21T03:29:59.867Z,14.50
2017-08-21T03:32:26.040Z,14.50
2017-08-21T03:34:53.111Z,14.60
2017-08-21T03:37:19.132Z,14.60
2017-08-21T03:39:45.155Z,14.60
2017-08-21T03:42:11.462Z,14.70
2017-08-21T03:44:37.486Z,14.70
2017-08-21T03:47:03.514Z,14.60
2017-08-21T03:49:29.561Z,14.60
2017-08-21T03:51:55.575Z,14.50
2017-08-21T03:54:21.590Z,14.60
2017-08-21T03:56:47.668Z,14.60
2017-08-21T03:59:13.710Z,14.60
2017-08-21T04:01:40.491Z,14.60
2017-08-21T04:04:06.539Z,14.60
2017-08-21T04:06:32.549Z,14.60
2017-08-21T04:08:58.569Z,14.50
2017-08-21T04:11:24.586Z,14.50
2017-08-21T04:13:50.894Z,14.50
2017-08-21T04:16:16.939Z,14.50
2017-08-21T04:18:42.945Z,14.50
2017-08-21T04:21:09.258Z,14.50
2017-08-21T04:23:35.277Z,14.60
2017-08-21T04:26:01.311Z,14.50
2017-08-21T04:28:27.383Z,14.60
2017-08-21T04:30:54.166Z,14.50
2017-08-21T04:33:20.180Z,14.50
2017-08-21T04:35:46.259Z,14.60
2017-08-21T04:38:12.261Z,14.50
2017-08-21T04:40:38.347Z,14.60
2017-08-21T04:43:04.678Z,14.60
2017-08-21T04:45:30.705Z,14.70
2017-08-21T04:47:56.770Z,14.70
2017-08-21T04:50:22.841Z,14.80
2017-08-21T04:52:48.864Z,14.70
2017-08-21T04:55:14.896Z,14.70
2017-08-21T04:57:40.951Z,14.70
2017-08-21T05:00:06.980Z,14.90
2017-08-21T05:02:33.000Z,14.90
2017-08-21T05:04:59.072Z,14.90
2017-08-21T05:07:25.098Z,14.90
2017-08-21T05:09:51.805Z,15.00
2017-08-21T05:12:17.907Z,15.00
2017-08-21T05:14:44.286Z,14.90
2017-08-21T05:17:10.350Z,15.00
2017-08-21T05:19:36.396Z,14.90
2017-08-21T05:22:02.440Z,15.00
2017-08-21T05:24:28.455Z,14.90
2017-08-21T05:26:54.545Z,15.00
2017-08-21T05:29:20.555Z,14.90
2017-08-21T05:31:46.578Z,15.00
2017-08-21T05:34:12.676Z,15.00
2017-08-21T05:36:38.817Z,14.90
2017-08-21T05:39:04.867Z,15.00
2017-08-21T05:41:30.910Z,15.10
2017-08-21T05:43:56.983Z,15.00
2017-08-21T05:46:23.023Z,14.90
2017-08-21T05:48:49.103Z,14.90
2017-08-21T05:51:15.125Z,15.00
2017-08-21T05:53:41.141Z,15.00
2017-08-21T05:56:07.662Z,15.00
2017-08-21T05:58:33.677Z,15.10
2017-08-21T06:00:59.722Z,14.90
2017-08-21T06:03:25.750Z,15.00
2017-08-21T06:05:51.795Z,15.00
2017-08-21T06:08:17.850Z,15.00
2017-08-21T06:10:44.615Z,15.10
2017-08-21T06:13:10.654Z,15.00
2017-08-21T06:15:36.710Z,15.10
2017-08-21T06:18:02.746Z,15.00
2017-08-21T06:20:28.776Z,15.10
2017-08-21T06:22:55.027Z,15.10
2017-08-21T06:25:21.053Z,15.20
2017-08-21T06:27:47.070Z,15.20
2017-08-21T06:30:13.108Z,15.20
2017-08-21T06:32:39.678Z,15.30
2017-08-21T06:35:05.725Z,15.40
2017-08-21T06:37:31.769Z,15.30
2017-08-21T06:39:57.830Z,15.30
2017-08-21T06:42:23.854Z,15.40
2017-08-21T06:44:49.883Z,15.40
2017-08-21T06:47:15.946Z,15.40
2017-08-21T06:49:41.980Z,15.50
2017-08-21T06:52:08.008Z,15.50
2017-08-21T06:54:34.090Z,15.50
2017-08-21T06:57:00.863Z,15.60
2017-08-21T06:59:26.886Z,15.60
2017-08-21T07:01:53.216Z,15.70
2017-08-21T07:04:19.259Z,15.70
2017-08-21T07:06:45.271Z,15.80
2017-08-21T07:09:11.301Z,15.80
2017-08-21T07:11:37.338Z,16.00
2017-08-21T07:14:03.362Z,15.90
2017-08-21T07:16:29.566Z,15.90
2017-08-21T07:18:55.583Z,16.00
2017-08-21T07:21:21.606Z,15.90
2017-08-21T07:23:47.651Z,16.00
2017-08-21T07:26:13.678Z,16.00
2017-08-21T07:28:39.790Z,16.10
2017-08-21T07:31:05.803Z,16.10
2017-08-21T07:33:31.839Z,16.20
2017-08-21T07:35:58.239Z,16.20
2017-08-21T07:38:24.258Z,16.30
2017-08-21T07:40:50.282Z,16.20
2017-08-21T07:43:16.332Z,16.30
2017-08-21T07:45:42.356Z,16.30
2017-08-21T07:48:08.369Z,16.30
2017-08-21T07:50:34.420Z,16.40
2017-08-21T07:53:01.197Z,16.60
2017-08-21T07:55:27.232Z,16.60
2017-08-21T07:57:53.477Z,16.70
2017-08-21T08:00:19.522Z,16.80
2017-08-21T08:02:45.547Z,16.80
2017-08-21T08:05:12.341Z,16.70
2017-08-21T08:07:38.357Z,16.70
2017-08-21T08:10:04.381Z,16.60
2017-08-21T08:12:30.432Z,16.60
2017-08-21T08:14:56.460Z,16.60
2017-08-21T08:17:22.478Z,16.60
2017-08-21T08:19:48.774Z,16.60
2017-08-21T08:22:14.992Z,16.60
2017-08-21T08:24:41.011Z,16.60
2017-08-21T08:27:07.107Z,16.70
2017-08-21T08:29:33.854Z,16.70
2017-08-21T08:31:59.883Z,16.60
2017-08-21T08:34:25.946Z,16.80
2017-08-21T08:36:51.969Z,16.80
2017-08-21T08:39:17.998Z,16.90
2017-08-21T08:41:44.050Z,17.00
2017-08-21T08:44:10.069Z,17.20
2017-08-21T08:46:36.850Z,17.30
2017-08-21T08:49:02.906Z,17.30
2017-08-21T08:51:28.935Z,17.20
2017-08-21T08:53:54.954Z,17.30
2017-08-21T08:56:21.001Z,17.20
2017-08-21T08:58:47.056Z,17.20
2017-08-21T09:01:13.139Z,17.10
2017-08-21T09:03:39.935Z,16.80
2017-08-21T09:06:05.970Z,16.80
2017-08-21T09:08:31.984Z,16.80
2017-08-21T09:10:58.276Z,16.80
2017-08-21T09:13:24.290Z,16.80
2017-08-21T09:15:50.306Z,16.90
2017-08-21T09:18:16.383Z,16.90
2017-08-21T09:20:42.418Z,17.00
2017-08-21T09:23:09.192Z,17.10
2017-08-21T09:25:35.535Z,17.10
2017-08-21T09:28:01.555Z,16.90
2017-08-21T09:30:27.575Z,16.90
2017-08-21T09:32:53.608Z,16.70
2017-08-21T09:35:19.625Z,16.80
2017-08-21T09:37:45.644Z,16.90
2017-08-21T09:40:11.677Z,16.90
2017-08-21T09:42:37.707Z,16.90
2017-08-21T09:45:03.762Z,17.00
2017-08-21T09:47:30.522Z,17.10
2017-08-21T09:49:56.564Z,17.10
2017-08-21T09:52:22.781Z,17.00
2017-08-21T09:54:48.798Z,16.80
2017-08-21T09:57:14.858Z,16.80
2017-08-21T10:00:13.395Z,16.70
2017-08-21T10:02:39.443Z,16.70
2017-08-21T10:05:05.469Z,16.80
2017-08-21T10:07:31.524Z,16.80
2017-08-21T10:09:57.547Z,16.90
2017-08-21T10:12:23.581Z,17.00
2017-08-21T10:14:49.734Z,16.90
2017-08-21T10:17:15.766Z,17.00
2017-08-21T10:19:41.815Z,17.10
2017-08-21T10:22:07.875Z,17.40
2017-08-21T10:24:33.946Z,18.00
2017-08-21T10:26:59.988Z,18.60
2017-08-21T10:29:26.022Z,18.70
2017-08-21T10:31:52.037Z,18.60
2017-08-21T10:34:18.050Z,18.20
2017-08-21T10:36:44.089Z,18.20
2017-08-21T10:39:10.097Z,18.20
2017-08-21T10:41:36.118Z,18.10
2017-08-21T10:44:02.126Z,18.20
2017-08-21T10:46:28.165Z,18.30
2017-08-21T10:48:54.231Z,18.40
2017-08-21T10:51:20.305Z,18.40
2017-08-21T10:53:46.338Z,18.40
2017-08-21T10:56:12.351Z,18.40
2017-08-21T10:58:38.805Z,18.40
2017-08-21T11:01:04.831Z,18.30
2017-08-21T11:03:30.862Z,18.40
2017-08-21T11:05:56.900Z,18.40
2017-08-21T11:08:22.914Z,18.50
2017-08-21T11:10:48.952Z,18.50
2017-08-21T11:13:15.297Z,18.80
2017-08-21T11:15:41.321Z,19.20
2017-08-21T11:18:07.350Z,19.70
2017-08-21T11:20:33.378Z,19.90
2017-08-21T11:22:59.395Z,20.00
2017-08-21T11:25:25.409Z,20.20
2017-08-21T11:27:51.471Z,20.30
2017-08-21T11:30:17.483Z,20.40
2017-08-21T11:32:43.531Z,20.60
2017-08-21T11:35:10.544Z,20.50
2017-08-21T11:37:36.601Z,20.30
2017-08-21T11:40:02.605Z,19.90
2017-08-21T11:42:28.696Z,19.70
2017-08-21T11:44:54.721Z,19.40
2017-08-21T11:47:20.746Z,19.20
2017-08-21T11:49:47.214Z,19.10
2017-08-21T11:52:13.247Z,19.20
2017-08-21T11:54:39.286Z,19.30
2017-08-21T11:57:05.638Z,19.40
2017-08-21T11:59:31.698Z,19.40
2017-08-21T12:01:57.761Z,19.40
2017-08-21T12:04:23.794Z,19.50
2017-08-21T12:06:49.814Z,19.60
2017-08-21T12:09:15.823Z,19.40
2017-08-21T12:11:42.160Z,19.10
2017-08-21T12:14:08.189Z,19.00
2017-08-21T12:16:34.193Z,18.90
2017-08-21T12:19:00.362Z,19.10
2017-08-21T12:21:26.378Z,19.30
2017-08-21T12:23:52.389Z,19.60
2017-08-21T12:26:18.471Z,20.00
2017-08-21T12:28:44.483Z,20.30
2017-08-21T12:31:10.523Z,20.60
2017-08-21T12:33:36.550Z,20.50
2017-08-21T12:36:02.566Z,20.30
2017-08-21T12:38:28.587Z,20.30
2017-08-21T12:40:54.622Z,20.30
2017-08-21T12:43:20.629Z,20.00
2017-08-21T12:45:46.658Z,19.70
2017-08-21T12:48:12.703Z,19.50
2017-08-21T12:50:38.714Z,19.30
2017-08-21T12:53:04.770Z,19.20
2017-08-21T12:55:30.791Z,19.30
2017-08-21T12:57:56.851Z,19.40
2017-08-21T13:00:22.886Z,19.70
2017-08-21T13:02:48.910Z,19.90
2017-08-21T13:05:14.918Z,20.00
2017-08-21T13:07:40.978Z,19.90
2017-08-21T13:10:07.271Z,19.90
2017-08-21T13:12:33.329Z,19.80
2017-08-21T13:14:59.351Z,19.70
2017-08-21T13:17:25.402Z,19.70
2017-08-21T13:19:51.429Z,19.50
2017-08-21T13:22:17.472Z,19.50
2017-08-21T13:24:43.708Z,19.60
2017-08-21T13:27:09.736Z,19.60
2017-08-21T13:29:35.826Z,19.70
2017-08-21T13:32:02.085Z,19.80
2017-08-21T13:34:28.098Z,19.80
2017-08-21T13:36:54.651Z,19.80
2017-08-21T13:39:20.738Z,19.70
2017-08-21T13:41:46.776Z,19.70
2017-08-21T13:44:12.795Z,19.80
2017-08-21T13:46:38.846Z,19.90
2017-08-21T13:49:04.946Z,19.90
2017-08-21T13:51:30.981Z,20.00
2017-08-21T13:53:57.058Z,20.10
2017-08-21T13:56:23.086Z,20.00
2017-08-21T13:58:49.158Z,20.00
2017-08-21T14:01:15.206Z,19.90
2017-08-21T14:03:41.222Z,19.80
2017-08-21T14:06:07.296Z,19.70
2017-08-21T14:08:33.357Z,19.70
2017-08-21T14:10:59.370Z,19.80
2017-08-21T14:13:25.398Z,19.70
2017-08-21T14:15:51.413Z,19.70
2017-08-21T14:18:17.423Z,19.60
2017-08-21T14:20:43.837Z,19.50
2017-08-21T14:23:09.861Z,19.40
2017-08-21T14:25:35.880Z,19.20
2017-08-21T14:28:02.107Z,19.20
2017-08-21T14:30:28.194Z,19.20
2017-08-21T14:32:54.213Z,19.10
2017-08-21T14:35:20.574Z,19.20
2017-08-21T14:37:46.608Z,19.20
2017-08-21T14:40:12.718Z,19.20
2017-08-21T14:42:38.749Z,19.30
2017-08-21T14:45:04.847Z,19.40
2017-08-21T14:47:31.618Z,19.30
2017-08-21T14:49:57.643Z,19.30
2017-08-21T14:52:23.673Z,19.20
2017-08-21T14:54:49.750Z,19.10
2017-08-21T14:57:15.758Z,19.10
2017-08-21T14:59:41.820Z,19.10
2017-08-21T15:02:07.842Z,19.10
2017-08-21T15:04:33.923Z,19.10
2017-08-21T15:06:59.959Z,19.20
2017-08-21T15:09:26.026Z,19.10
2017-08-21T15:11:52.098Z,19.00
2017-08-21T15:14:18.109Z,19.10
2017-08-21T15:16:44.153Z,19.00
2017-08-21T15:19:10.183Z,19.00
2017-08-21T15:21:36.230Z,19.00
2017-08-21T15:24:02.275Z,18.90
2017-08-21T15:26:28.325Z,18.90
2017-08-21T15:28:54.346Z,18.90
2017-08-21T15:31:20.413Z,18.90
2017-08-21T15:33:46.446Z,18.70
2017-08-21T15:36:12.644Z,18.80
2017-08-21T15:38:38.673Z,18.90
2017-08-21T15:41:04.746Z,19.00
2017-08-21T15:43:30.810Z,18.90
2017-08-21T15:45:56.851Z,18.90
2017-08-21T15:48:22.888Z,18.80
2017-08-21T15:50:48.968Z,18.90
2017-08-21T15:53:15.011Z,18.80
2017-08-21T15:55:41.037Z,18.90
2017-08-21T15:58:07.075Z,18.90
2017-08-21T16:00:33.129Z,19.00
2017-08-21T16:02:59.186Z,18.90
2017-08-21T16:05:25.258Z,18.80
2017-08-21T16:07:51.328Z,18.80
2017-08-21T16:10:17.451Z,18.80
2017-08-21T16:12:43.582Z,18.80
2017-08-21T16:15:09.616Z,18.70
2017-08-21T16:17:35.647Z,18.70
2017-08-21T16:20:02.692Z,18.60
2017-08-21T16:22:28.814Z,18.60
2017-08-21T16:24:54.870Z,18.50
2017-08-21T16:27:20.895Z,18.50
2017-08-21T16:29:46.930Z,18.50
2017-08-21T16:32:13.014Z,18.60
2017-08-21T16:34:39.061Z,18.70
2017-08-21T16:37:05.130Z,18.70
2017-08-21T16:39:31.190Z,18.70
2017-08-21T16:41:57.242Z,18.70
2017-08-21T16:44:23.259Z,18.60
2017-08-21T16:46:49.611Z,18.60
2017-08-21T16:49:15.667Z,18.60
2017-08-21T16:51:41.702Z,18.70
2017-08-21T16:54:07.746Z,18.70
2017-08-21T16:56:33.879Z,18.70
2017-08-21T16:59:00.139Z,18.60
2017-08-21T17:01:26.179Z,18.60
2017-08-21T17:03:52.209Z,18.50
2017-08-21T17:06:18.250Z,18.50
2017-08-21T17:08:44.306Z,18.50
2017-08-21T17:11:10.335Z,18.40
2017-08-21T17:13:36.398Z,18.50
2017-08-21T17:16:02.453Z,18.40
2017-08-21T17:18:28.536Z,18.40
2017-08-21T17:20:54.568Z,18.40
2017-08-21T17:23:22.028Z,18.40
2017-08-21T17:25:48.070Z,18.40
2017-08-21T17:28:14.130Z,18.30
2017-08-21T17:30:40.165Z,18.20
2017-08-21T17:33:06.202Z,18.20
2017-08-21T17:35:32.699Z,18.20
2017-08-21T17:37:58.743Z,18.10
2017-08-21T17:40:24.818Z,18.00
2017-08-21T17:42:50.872Z,18.00
2017-08-21T17:45:16.948Z,18.00
2017-08-21T17:47:42.977Z,17.90
2017-08-21T17:50:09.035Z,18.00
2017-08-21T17:52:35.052Z,17.90
2017-08-21T17:55:01.083Z,17.90
2017-08-21T17:57:27.508Z,17.80
2017-08-21T17:59:53.524Z,17.70
2017-08-21T18:02:19.558Z,17.70
2017-08-21T18:04:45.656Z,17.80
2017-08-21T18:07:11.691Z,17.70
2017-08-21T18:09:37.712Z,17.60
2017-08-21T18:12:03.895Z,17.60
2017-08-21T18:14:30.584Z,17.60
2017-08-21T18:16:56.636Z,17.60
2017-08-21T18:19:22.650Z,17.60
2017-08-21T18:21:49.029Z,17.50
2017-08-21T18:24:15.200Z,17.50
2017-08-21T18:26:41.222Z,17.50
2017-08-21T18:29:07.530Z,17.40
2017-08-21T18:31:33.610Z,17.40
2017-08-21T18:33:59.798Z,17.40
2017-08-21T18:36:25.864Z,17.40
2017-08-21T18:38:51.902Z,17.30
2017-08-21T18:41:18.230Z,17.30
2017-08-21T18:43:44.262Z,17.30
2017-08-21T18:46:10.287Z,17.20
2017-08-21T18:48:36.344Z,17.10
2017-08-21T18:51:02.380Z,17.10
2017-08-21T18:53:28.414Z,17.10
2017-08-21T18:55:54.606Z,17.10
2017-08-21T18:58:20.697Z,17.00
2017-08-21T19:00:46.778Z,17.00
2017-08-21T19:03:12.850Z,17.00
2017-08-21T19:05:38.878Z,17.00
2017-08-21T19:08:04.908Z,17.00
2017-08-21T19:10:30.963Z,16.90
2017-08-21T19:12:57.038Z,16.90
2017-08-21T19:15:23.067Z,16.90
2017-08-21T19:17:49.316Z,16.90
2017-08-21T19:20:15.421Z,16.90
2017-08-21T19:22:43.910Z,16.70
2017-08-21T19:25:09.987Z,16.60
2017-08-21T19:27:36.010Z,16.60
2017-08-21T19:30:02.175Z,16.50
2017-08-21T19:32:28.214Z,16.40
2017-08-21T19:34:54.233Z,16.50
2017-08-21T19:37:21.805Z,16.40
2017-08-21T19:39:48.078Z,16.40
2017-08-21T19:42:14.147Z,16.40
2017-08-21T19:44:40.204Z,16.40
2017-08-21T19:47:06.277Z,16.40
2017-08-21T19:49:32.295Z,16.30
2017-08-21T19:51:58.323Z,16.30
2017-08-21T19:54:24.614Z,16.30
2017-08-21T19:56:50.647Z,16.30
2017-08-21T19:59:16.689Z,16.30
2017-08-21T20:01:42.710Z,16.30
2017-08-21T20:04:08.726Z,16.30
2017-08-21T20:06:34.790Z,16.20
2017-08-21T20:09:00.839Z,16.10
2017-08-21T20:11:26.864Z,16.10
2017-08-21T20:13:52.914Z,16.10
2017-08-21T20:16:19.491Z,16.00
2017-08-21T20:18:45.515Z,16.10
2017-08-21T20:21:11.550Z,16.00
2017-08-21T20:23:37.985Z,16.00
2017-08-21T20:26:04.015Z,15.90
2017-08-21T20:28:30.163Z,16.00
2017-08-21T20:30:56.192Z,15.90
2017-08-21T20:33:22.230Z,15.80
2017-08-21T20:35:48.445Z,15.80
2017-08-21T20:38:14.699Z,15.90
2017-08-21T20:40:40.734Z,15.80
2017-08-21T20:43:06.785Z,15.80
2017-08-21T20:45:32.974Z,15.70
2017-08-21T20:47:59.000Z,15.80
2017-08-21T20:50:25.357Z,15.70
2017-08-21T20:52:51.391Z,15.70
2017-08-21T20:55:17.454Z,15.70
2017-08-21T20:57:43.695Z,15.70
2017-08-21T21:00:10.589Z,15.70
2017-08-21T21:02:36.619Z,15.70
2017-08-21T21:05:02.876Z,15.70
2017-08-21T21:07:29.163Z,15.70
2017-08-21T21:09:55.214Z,15.80
2017-08-21T21:12:21.324Z,15.70
2017-08-21T21:14:47.373Z,15.70
2017-08-21T21:17:13.432Z,15.70
2017-08-21T21:19:39.527Z,15.70
2017-08-21T21:22:05.565Z,15.70
2017-08-21T21:24:31.635Z,15.60
2017-08-21T21:26:57.846Z,15.60
2017-08-21T21:29:23.916Z,15.70
2017-08-21T21:31:49.953Z,15.70
2017-08-21T21:34:16.025Z,15.60
2017-08-21T21:36:42.039Z,15.60
2017-08-21T21:39:08.095Z,15.50
2017-08-21T21:41:34.118Z,15.60
2017-08-21T21:44:00.185Z,15.50
2017-08-21T21:46:26.662Z,15.50
2017-08-21T21:48:52.732Z,15.50
2017-08-21T21:51:18.772Z,15.50
2017-08-21T21:53:44.813Z,15.50
2017-08-21T21:56:10.834Z,15.50
2017-08-21T21:58:37.058Z,15.50
2017-08-21T22:01:03.251Z,15.40
2017-08-21T22:03:29.279Z,15.40
2017-08-21T22:05:55.459Z,15.40
2017-08-21T22:08:21.722Z,15.40
2017-08-21T22:10:47.795Z,15.30
2017-08-21T22:13:14.255Z,15.30
2017-08-21T22:15:40.471Z,15.30
2017-08-21T22:18:06.498Z,15.30
2017-08-21T22:20:32.522Z,15.30
2017-08-21T22:22:58.963Z,15.30
2017-08-21T22:25:24.996Z,15.30
2017-08-21T22:27:51.034Z,15.30
2017-08-21T22:30:17.109Z,15.40
2017-08-21T22:32:43.329Z,15.40
2017-08-21T22:35:09.346Z,15.30
2017-08-21T22:37:35.384Z,15.40
2017-08-21T22:40:01.410Z,15.40
2017-08-21T22:42:27.863Z,15.30
2017-08-21T22:44:53.891Z,15.20
2017-08-21T22:47:19.904Z,15.20
2017-08-21T22:49:46.155Z,15.30
2017-08-21T22:52:12.200Z,15.20
2017-08-21T22:54:38.270Z,15.20
2017-08-21T22:57:04.619Z,15.20
2017-08-21T22:59:30.670Z,15.20
2017-08-21T23:01:56.698Z,15.10
2017-08-21T23:04:22.753Z,15.10
2017-08-21T23:06:49.819Z,15.10
2017-08-21T23:09:17.031Z,15.30
2017-08-21T23:11:43.292Z,15.30
2017-08-21T23:14:09.523Z,15.30
2017-08-21T23:16:35.718Z,15.30
2017-08-21T23:19:02.944Z,15.20
2017-08-21T23:21:29.073Z,15.20
2017-08-21T23:23:55.137Z,15.20
2017-08-21T23:26:21.649Z,15.10
2017-08-21T23:28:47.712Z,15.10
2017-08-21T23:31:13.969Z,15.10
2017-08-21T23:33:40.738Z,15.10
2017-08-21T23:36:06.950Z,15.10
2017-08-21T23:38:33.155Z,15.00
2017-08-21T23:40:59.736Z,14.90
2017-08-21T23:43:25.950Z,14.90
2017-08-21T23:45:52.043Z,14.90
2017-08-21T23:48:18.203Z,14.90
2017-08-21T23:50:44.228Z,14.80
2017-08-21T23:53:10.301Z,14.80
2017-08-21T23:55:36.595Z,14.70
2017-08-21T23:58:02.617Z,14.80
